sensor_id;sensor_type;location;lat;lon;timestamp;temperature;humidity
18160;DHT22;9205;52.032;4.314;2023-04-25T00:00:12;7.60;99.90
18160;DHT22;9205;52.032;4.314;2023-04-25T00:02:40;7.60;99.90
18160;DHT22;9205;52.032;4.314;2023-04-25T00:05:09;7.60;99.90
18160;DHT22;9205;52.032;4.314;2023-04-25T00:07:37;7.50;99.90
18160;DHT22;9205;52.032;4.314;2023-04-25T00:10:06;7.50;99.90
18160;DHT22;9205;52.032;4.314;2023-04-25T00:12:34;7.40;99.90
18160;DHT22;9205;52.032;4.314;2023-04-25T00:15:02;7.40;99.90
18160;DHT22;9205;52.032;4.314;2023-04-25T00:17:29;7.40;99.90
18160;DHT22;9205;52.032;4.314;2023-04-25T00:19:57;7.40;99.90
18160;DHT22;9205;52.032;4.314;2023-04-25T00:22:25;7.60;99.90
18160;DHT22;9205;52.032;4.314;2023-04-25T00:24:53;7.60;27.80
18160;DHT22;9205;52.032;4.314;2023-04-25T00:27:22;7.60;9.80
18160;DHT22;9205;52.032;4.314;2023-04-25T00:29:49;7.70;1.00
18160;DHT22;9205;52.032;4.314;2023-04-25T00:32:17;7.70;1.00
18160;DHT22;9205;52.032;4.314;2023-04-25T00:34:44;7.80;1.00
18160;DHT22;9205;52.032;4.314;2023-04-25T00:37:11;7.70;1.00
18160;DHT22;9205;52.032;4.314;2023-04-25T00:39:40;7.70;1.00
18160;DHT22;9205;52.032;4.314;2023-04-25T00:42:08;7.70;1.00
18160;DHT22;9205;52.032;4.314;2023-04-25T00:44:35;7.70;1.00
18160;DHT22;9205;52.032;4.314;2023-04-25T00:47:04;7.80;1.00
18160;DHT22;9205;52.032;4.314;2023-04-25T00:49:32;7.80;1.00
18160;DHT22;9205;52.032;4.314;2023-04-25T00:52:00;7.80;1.00
18160;DHT22;9205;52.032;4.314;2023-04-25T00:54:27;7.90;1.00
18160;DHT22;9205;52.032;4.314;2023-04-25T00:56:58;7.90;1.00
18160;DHT22;9205;52.032;4.314;2023-04-25T00:59:27;7.80;1.00
18160;DHT22;9205;52.032;4.314;2023-04-25T01:01:56;7.80;1.00
18160;DHT22;9205;52.032;4.314;2023-04-25T01:04:25;7.80;1.00
18160;DHT22;9205;52.032;4.314;2023-04-25T01:06:54;7.80;1.00
18160;DHT22;9205;52.032;4.314;2023-04-25T01:09:22;7.80;99.90
18160;DHT22;9205;52.032;4.314;2023-04-25T01:11:50;7.80;99.90
18160;DHT22;9205;52.032;4.314;2023-04-25T01:14:19;7.70;1.00
18160;DHT22;9205;52.032;4.314;2023-04-25T01:16:46;7.70;1.00
18160;DHT22;9205;52.032;4.314;2023-04-25T01:19:16;7.60;1.00
18160;DHT22;9205;52.032;4.314;2023-04-25T01:21:47;7.60;99.90
18160;DHT22;9205;52.032;4.314;2023-04-25T01:24:15;7.60;99.90
18160;DHT22;9205;52.032;4.314;2023-04-25T01:26:43;7.60;99.90
18160;DHT22;9205;52.032;4.314;2023-04-25T01:29:16;7.50;99.90
18160;DHT22;9205;52.032;4.314;2023-04-25T01:31:44;7.50;99.90
18160;DHT22;9205;52.032;4.314;2023-04-25T01:34:13;7.50;99.90
18160;DHT22;9205;52.032;4.314;2023-04-25T01:36:40;7.50;99.90
18160;DHT22;9205;52.032;4.314;2023-04-25T01:39:09;7.50;99.90
18160;DHT22;9205;52.032;4.314;2023-04-25T01:41:37;7.50;99.90
18160;DHT22;9205;52.032;4.314;2023-04-25T01:44:05;7.50;99.90
18160;DHT22;9205;52.032;4.314;2023-04-25T01:46:33;7.50;8.50
18160;DHT22;9205;52.032;4.314;2023-04-25T01:49:01;7.50;1.00
18160;DHT22;9205;52.032;4.314;2023-04-25T01:51:29;7.50;58.30
18160;DHT22;9205;52.032;4.314;2023-04-25T01:53:57;7.50;1.00
18160;DHT22;9205;52.032;4.314;2023-04-25T01:56:30;7.50;6.60
18160;DHT22;9205;52.032;4.314;2023-04-25T01:58:58;7.50;1.00
18160;DHT22;9205;52.032;4.314;2023-04-25T02:01:45;7.60;1.00
18160;DHT22;9205;52.032;4.314;2023-04-25T02:04:21;7.60;1.00
18160;DHT22;9205;52.032;4.314;2023-04-25T02:06:48;7.60;1.00
18160;DHT22;9205;52.032;4.314;2023-04-25T02:09:15;7.60;5.40
18160;DHT22;9205;52.032;4.314;2023-04-25T02:11:52;7.60;8.30
18160;DHT22;9205;52.032;4.314;2023-04-25T02:14:26;7.70;1.00
18160;DHT22;9205;52.032;4.314;2023-04-25T02:17:05;7.70;1.00
18160;DHT22;9205;52.032;4.314;2023-04-25T02:19:32;7.70;1.00
18160;DHT22;9205;52.032;4.314;2023-04-25T02:22:00;7.70;1.00
18160;DHT22;9205;52.032;4.314;2023-04-25T02:24:27;7.70;1.00
18160;DHT22;9205;52.032;4.314;2023-04-25T02:26:57;7.70;1.00
18160;DHT22;9205;52.032;4.314;2023-04-25T02:29:24;7.70;1.00
18160;DHT22;9205;52.032;4.314;2023-04-25T02:31:51;7.70;1.00
18160;DHT22;9205;52.032;4.314;2023-04-25T02:34:18;7.80;1.00
18160;DHT22;9205;52.032;4.314;2023-04-25T02:36:45;7.70;1.00
18160;DHT22;9205;52.032;4.314;2023-04-25T02:39:12;7.80;1.00
18160;DHT22;9205;52.032;4.314;2023-04-25T02:41:39;7.80;1.00
18160;DHT22;9205;52.032;4.314;2023-04-25T02:44:08;7.80;1.00
18160;DHT22;9205;52.032;4.314;2023-04-25T02:46:37;7.80;1.00
18160;DHT22;9205;52.032;4.314;2023-04-25T02:49:04;7.80;1.00
18160;DHT22;9205;52.032;4.314;2023-04-25T02:51:31;7.80;1.00
18160;DHT22;9205;52.032;4.314;2023-04-25T02:53:59;7.80;1.00
18160;DHT22;9205;52.032;4.314;2023-04-25T02:56:26;7.90;1.00
18160;DHT22;9205;52.032;4.314;2023-04-25T02:58:53;7.90;1.00
18160;DHT22;9205;52.032;4.314;2023-04-25T03:01:22;7.90;15.40
18160;DHT22;9205;52.032;4.314;2023-04-25T03:03:49;7.90;1.00
18160;DHT22;9205;52.032;4.314;2023-04-25T03:06:17;7.90;46.80
18160;DHT22;9205;52.032;4.314;2023-04-25T03:08:44;7.80;7.70
18160;DHT22;9205;52.032;4.314;2023-04-25T03:11:11;7.80;1.00
18160;DHT22;9205;52.032;4.314;2023-04-25T03:13:41;7.80;1.00
18160;DHT22;9205;52.032;4.314;2023-04-25T03:16:09;7.80;1.00
18160;DHT22;9205;52.032;4.314;2023-04-25T03:18:38;7.80;1.00
18160;DHT22;9205;52.032;4.314;2023-04-25T03:21:05;7.80;1.00
18160;DHT22;9205;52.032;4.314;2023-04-25T03:23:32;7.80;1.00
18160;DHT22;9205;52.032;4.314;2023-04-25T03:26:00;7.80;1.00
18160;DHT22;9205;52.032;4.314;2023-04-25T03:28:27;7.80;1.00
18160;DHT22;9205;52.032;4.314;2023-04-25T03:30:56;7.80;1.00
18160;DHT22;9205;52.032;4.314;2023-04-25T03:33:23;7.80;1.00
18160;DHT22;9205;52.032;4.314;2023-04-25T03:35:52;7.80;11.10
18160;DHT22;9205;52.032;4.314;2023-04-25T03:38:19;7.90;99.90
18160;DHT22;9205;52.032;4.314;2023-04-25T03:40:47;7.80;99.90
18160;DHT22;9205;52.032;4.314;2023-04-25T03:43:20;7.80;99.90
18160;DHT22;9205;52.032;4.314;2023-04-25T03:45:53;7.90;99.90
18160;DHT22;9205;52.032;4.314;2023-04-25T03:48:22;7.90;99.90
18160;DHT22;9205;52.032;4.314;2023-04-25T03:50:52;7.90;1.00
18160;DHT22;9205;52.032;4.314;2023-04-25T03:53:19;7.90;1.00
18160;DHT22;9205;52.032;4.314;2023-04-25T03:56:19;7.80;99.90
18160;DHT22;9205;52.032;4.314;2023-04-25T03:58:51;7.80;99.90
18160;DHT22;9205;52.032;4.314;2023-04-25T04:01:20;7.70;99.90
18160;DHT22;9205;52.032;4.314;2023-04-25T04:03:47;7.70;1.00
18160;DHT22;9205;52.032;4.314;2023-04-25T04:06:16;7.70;1.00
18160;DHT22;9205;52.032;4.314;2023-04-25T04:08:47;7.70;1.00
18160;DHT22;9205;52.032;4.314;2023-04-25T04:11:15;7.70;1.00
18160;DHT22;9205;52.032;4.314;2023-04-25T04:13:42;7.70;1.00
18160;DHT22;9205;52.032;4.314;2023-04-25T04:16:09;7.70;1.00
18160;DHT22;9205;52.032;4.314;2023-04-25T04:18:37;7.70;1.00
18160;DHT22;9205;52.032;4.314;2023-04-25T04:21:04;7.60;1.00
18160;DHT22;9205;52.032;4.314;2023-04-25T04:23:35;7.60;1.00
18160;DHT22;9205;52.032;4.314;2023-04-25T04:26:03;7.50;1.00
18160;DHT22;9205;52.032;4.314;2023-04-25T04:28:59;7.50;1.00
18160;DHT22;9205;52.032;4.314;2023-04-25T04:31:54;7.40;1.00
18160;DHT22;9205;52.032;4.314;2023-04-25T04:34:21;7.30;1.00
18160;DHT22;9205;52.032;4.314;2023-04-25T04:36:51;7.20;1.00
18160;DHT22;9205;52.032;4.314;2023-04-25T04:39:20;7.30;1.00
18160;DHT22;9205;52.032;4.314;2023-04-25T04:42:08;7.20;1.00
18160;DHT22;9205;52.032;4.314;2023-04-25T04:44:52;7.30;1.00
18160;DHT22;9205;52.032;4.314;2023-04-25T04:47:43;7.30;1.00
18160;DHT22;9205;52.032;4.314;2023-04-25T04:50:18;7.30;99.90
18160;DHT22;9205;52.032;4.314;2023-04-25T04:53:20;7.30;99.90
18160;DHT22;9205;52.032;4.314;2023-04-25T04:56:09;7.40;1.00
18160;DHT22;9205;52.032;4.314;2023-04-25T04:58:56;7.40;1.00
18160;DHT22;9205;52.032;4.314;2023-04-25T05:01:39;7.40;1.00
18160;DHT22;9205;52.032;4.314;2023-04-25T05:04:35;7.50;1.00
18160;DHT22;9205;52.032;4.314;2023-04-25T05:07:21;7.50;1.00
18160;DHT22;9205;52.032;4.314;2023-04-25T05:10:05;7.60;1.00
18160;DHT22;9205;52.032;4.314;2023-04-25T05:12:58;7.60;1.00
18160;DHT22;9205;52.032;4.314;2023-04-25T05:15:40;7.50;1.00
18160;DHT22;9205;52.032;4.314;2023-04-25T05:18:18;7.40;99.90
18160;DHT22;9205;52.032;4.314;2023-04-25T05:21:09;7.40;99.90
18160;DHT22;9205;52.032;4.314;2023-04-25T05:23:54;7.30;99.90
18160;DHT22;9205;52.032;4.314;2023-04-25T05:26:41;7.30;1.00
18160;DHT22;9205;52.032;4.314;2023-04-25T05:29:28;7.30;1.00
18160;DHT22;9205;52.032;4.314;2023-04-25T05:32:10;7.20;99.90
18160;DHT22;9205;52.032;4.314;2023-04-25T05:34:37;7.30;99.90
18160;DHT22;9205;52.032;4.314;2023-04-25T05:37:11;7.40;99.90
18160;DHT22;9205;52.032;4.314;2023-04-25T05:39:50;7.40;99.90
18160;DHT22;9205;52.032;4.314;2023-04-25T05:42:31;7.50;1.00
18160;DHT22;9205;52.032;4.314;2023-04-25T05:45:20;7.50;99.90
18160;DHT22;9205;52.032;4.314;2023-04-25T05:48:06;7.50;70.80
18160;DHT22;9205;52.032;4.314;2023-04-25T05:51:02;7.40;1.00
18160;DHT22;9205;52.032;4.314;2023-04-25T05:53:47;7.60;1.00
18160;DHT22;9205;52.032;4.314;2023-04-25T05:56:14;7.60;1.00
18160;DHT22;9205;52.032;4.314;2023-04-25T05:58:41;7.70;1.00
18160;DHT22;9205;52.032;4.314;2023-04-25T06:01:12;7.80;99.90
18160;DHT22;9205;52.032;4.314;2023-04-25T06:03:40;7.70;99.90
18160;DHT22;9205;52.032;4.314;2023-04-25T06:06:09;7.70;99.90
18160;DHT22;9205;52.032;4.314;2023-04-25T06:08:37;7.80;1.00
18160;DHT22;9205;52.032;4.314;2023-04-25T06:11:05;7.60;99.90
18160;DHT22;9205;52.032;4.314;2023-04-25T06:13:33;7.70;1.00
18160;DHT22;9205;52.032;4.314;2023-04-25T06:16:00;7.60;1.00
18160;DHT22;9205;52.032;4.314;2023-04-25T06:18:29;7.60;1.00
18160;DHT22;9205;52.032;4.314;2023-04-25T06:20:57;7.70;1.00
18160;DHT22;9205;52.032;4.314;2023-04-25T06:23:25;7.70;1.00
18160;DHT22;9205;52.032;4.314;2023-04-25T06:26:01;7.70;1.00
18160;DHT22;9205;52.032;4.314;2023-04-25T06:28:29;7.70;1.00
18160;DHT22;9205;52.032;4.314;2023-04-25T06:30:57;7.80;1.00
18160;DHT22;9205;52.032;4.314;2023-04-25T06:33:24;7.90;1.00
18160;DHT22;9205;52.032;4.314;2023-04-25T06:35:55;7.80;1.00
18160;DHT22;9205;52.032;4.314;2023-04-25T06:38:25;7.80;99.90
18160;DHT22;9205;52.032;4.314;2023-04-25T06:40:55;7.80;15.20
18160;DHT22;9205;52.032;4.314;2023-04-25T06:43:22;7.90;1.00
18160;DHT22;9205;52.032;4.314;2023-04-25T06:45:50;7.90;1.00
18160;DHT22;9205;52.032;4.314;2023-04-25T06:48:19;7.90;99.90
18160;DHT22;9205;52.032;4.314;2023-04-25T06:50:46;8.00;99.90
18160;DHT22;9205;52.032;4.314;2023-04-25T06:53:15;8.10;99.90
18160;DHT22;9205;52.032;4.314;2023-04-25T06:55:45;8.20;39.30
18160;DHT22;9205;52.032;4.314;2023-04-25T06:58:16;8.20;1.00
18160;DHT22;9205;52.032;4.314;2023-04-25T07:00:53;8.20;1.00
18160;DHT22;9205;52.032;4.314;2023-04-25T07:03:22;8.30;1.00
18160;DHT22;9205;52.032;4.314;2023-04-25T07:05:54;8.30;1.00
18160;DHT22;9205;52.032;4.314;2023-04-25T07:08:23;8.20;99.90
18160;DHT22;9205;52.032;4.314;2023-04-25T07:10:50;8.20;99.90
18160;DHT22;9205;52.032;4.314;2023-04-25T07:13:17;8.20;1.00
18160;DHT22;9205;52.032;4.314;2023-04-25T07:15:46;8.30;1.00
18160;DHT22;9205;52.032;4.314;2023-04-25T07:18:14;8.30;1.00
18160;DHT22;9205;52.032;4.314;2023-04-25T07:20:42;8.30;99.90
18160;DHT22;9205;52.032;4.314;2023-04-25T07:23:09;8.40;99.90
18160;DHT22;9205;52.032;4.314;2023-04-25T07:25:38;8.30;99.90
18160;DHT22;9205;52.032;4.314;2023-04-25T07:28:06;8.40;99.90
18160;DHT22;9205;52.032;4.314;2023-04-25T07:30:33;8.20;1.00
18160;DHT22;9205;52.032;4.314;2023-04-25T07:33:03;8.30;1.00
18160;DHT22;9205;52.032;4.314;2023-04-25T07:35:30;8.50;1.00
18160;DHT22;9205;52.032;4.314;2023-04-25T07:37:58;8.70;1.00
18160;DHT22;9205;52.032;4.314;2023-04-25T07:40:25;8.60;1.00
18160;DHT22;9205;52.032;4.314;2023-04-25T07:42:59;8.50;1.00
18160;DHT22;9205;52.032;4.314;2023-04-25T07:45:36;8.30;1.00
18160;DHT22;9205;52.032;4.314;2023-04-25T07:48:04;8.20;1.00
18160;DHT22;9205;52.032;4.314;2023-04-25T07:50:35;8.20;1.00
18160;DHT22;9205;52.032;4.314;2023-04-25T07:53:02;8.10;1.00
18160;DHT22;9205;52.032;4.314;2023-04-25T07:55:40;8.20;47.50
18160;DHT22;9205;52.032;4.314;2023-04-25T07:58:14;8.50;99.90
18160;DHT22;9205;52.032;4.314;2023-04-25T08:00:44;8.40;1.00
18160;DHT22;9205;52.032;4.314;2023-04-25T08:03:40;8.50;1.00
18160;DHT22;9205;52.032;4.314;2023-04-25T08:06:14;8.90;1.00
18160;DHT22;9205;52.032;4.314;2023-04-25T08:08:50;8.90;1.00
18160;DHT22;9205;52.032;4.314;2023-04-25T08:11:19;8.90;1.00
18160;DHT22;9205;52.032;4.314;2023-04-25T08:13:48;8.70;1.00
18160;DHT22;9205;52.032;4.314;2023-04-25T08:16:15;8.50;99.90
18160;DHT22;9205;52.032;4.314;2023-04-25T08:18:42;8.40;99.90
18160;DHT22;9205;52.032;4.314;2023-04-25T08:21:10;8.50;1.00
18160;DHT22;9205;52.032;4.314;2023-04-25T08:23:38;8.60;1.00
18160;DHT22;9205;52.032;4.314;2023-04-25T08:26:12;8.70;1.00
18160;DHT22;9205;52.032;4.314;2023-04-25T08:28:41;8.80;1.00
18160;DHT22;9205;52.032;4.314;2023-04-25T08:31:09;9.00;1.00
18160;DHT22;9205;52.032;4.314;2023-04-25T08:33:47;9.10;1.00
18160;DHT22;9205;52.032;4.314;2023-04-25T08:36:23;9.20;1.00
18160;DHT22;9205;52.032;4.314;2023-04-25T08:38:51;9.30;1.00
18160;DHT22;9205;52.032;4.314;2023-04-25T08:41:20;9.30;1.00
18160;DHT22;9205;52.032;4.314;2023-04-25T08:43:49;9.20;1.00
18160;DHT22;9205;52.032;4.314;2023-04-25T08:46:19;9.00;1.00
18160;DHT22;9205;52.032;4.314;2023-04-25T08:49:05;9.00;1.00
18160;DHT22;9205;52.032;4.314;2023-04-25T08:51:38;9.10;1.00
18160;DHT22;9205;52.032;4.314;2023-04-25T08:54:12;9.30;1.00
18160;DHT22;9205;52.032;4.314;2023-04-25T08:56:44;9.30;99.90
18160;DHT22;9205;52.032;4.314;2023-04-25T08:59:13;9.30;99.90
18160;DHT22;9205;52.032;4.314;2023-04-25T09:01:44;9.50;99.90
18160;DHT22;9205;52.032;4.314;2023-04-25T09:04:12;9.50;99.90
18160;DHT22;9205;52.032;4.314;2023-04-25T09:06:40;9.50;99.90
18160;DHT22;9205;52.032;4.314;2023-04-25T09:09:08;9.60;99.90
18160;DHT22;9205;52.032;4.314;2023-04-25T09:11:36;9.70;99.90
18160;DHT22;9205;52.032;4.314;2023-04-25T09:14:12;9.70;99.90
18160;DHT22;9205;52.032;4.314;2023-04-25T09:17:04;9.70;99.90
18160;DHT22;9205;52.032;4.314;2023-04-25T09:19:42;9.60;99.90
18160;DHT22;9205;52.032;4.314;2023-04-25T09:22:31;9.50;99.90
18160;DHT22;9205;52.032;4.314;2023-04-25T09:25:02;9.50;99.90
18160;DHT22;9205;52.032;4.314;2023-04-25T09:27:32;9.50;99.90
18160;DHT22;9205;52.032;4.314;2023-04-25T09:30:15;9.50;99.90
18160;DHT22;9205;52.032;4.314;2023-04-25T09:33:03;9.70;99.90
18160;DHT22;9205;52.032;4.314;2023-04-25T09:35:35;9.70;99.90
18160;DHT22;9205;52.032;4.314;2023-04-25T09:38:10;9.90;99.90
18160;DHT22;9205;52.032;4.314;2023-04-25T09:40:57;10.00;99.90
18160;DHT22;9205;52.032;4.314;2023-04-25T09:43:39;9.70;99.90
18160;DHT22;9205;52.032;4.314;2023-04-25T09:46:09;9.50;60.50
18160;DHT22;9205;52.032;4.314;2023-04-25T09:48:49;9.40;51.70
18160;DHT22;9205;52.032;4.314;2023-04-25T09:51:26;9.40;99.90
18160;DHT22;9205;52.032;4.314;2023-04-25T09:53:55;9.70;99.90
18160;DHT22;9205;52.032;4.314;2023-04-25T09:56:35;9.70;99.90
18160;DHT22;9205;52.032;4.314;2023-04-25T09:59:06;9.40;1.00
18160;DHT22;9205;52.032;4.314;2023-04-25T10:01:36;9.40;1.00
18160;DHT22;9205;52.032;4.314;2023-04-25T10:04:18;9.60;1.00
18160;DHT22;9205;52.032;4.314;2023-04-25T10:07:08;9.90;1.00
18160;DHT22;9205;52.032;4.314;2023-04-25T10:09:37;10.00;1.00
18160;DHT22;9205;52.032;4.314;2023-04-25T10:12:06;9.90;1.00
18160;DHT22;9205;52.032;4.314;2023-04-25T10:14:34;9.80;1.00
18160;DHT22;9205;52.032;4.314;2023-04-25T10:17:02;9.80;14.10
18160;DHT22;9205;52.032;4.314;2023-04-25T10:19:32;9.90;73.70
18160;DHT22;9205;52.032;4.314;2023-04-25T10:22:05;10.20;99.90
18160;DHT22;9205;52.032;4.314;2023-04-25T10:24:35;10.40;99.90
18160;DHT22;9205;52.032;4.314;2023-04-25T10:27:04;10.50;99.90
18160;DHT22;9205;52.032;4.314;2023-04-25T10:29:32;10.60;99.90
18160;DHT22;9205;52.032;4.314;2023-04-25T10:32:00;10.20;99.90
18160;DHT22;9205;52.032;4.314;2023-04-25T10:34:40;10.00;99.90
18160;DHT22;9205;52.032;4.314;2023-04-25T10:37:09;10.10;99.90
18160;DHT22;9205;52.032;4.314;2023-04-25T10:39:39;10.40;99.90
18160;DHT22;9205;52.032;4.314;2023-04-25T10:42:08;10.60;99.90
18160;DHT22;9205;52.032;4.314;2023-04-25T10:44:37;10.60;99.90
18160;DHT22;9205;52.032;4.314;2023-04-25T10:47:07;10.40;99.90
18160;DHT22;9205;52.032;4.314;2023-04-25T10:49:37;10.50;99.90
18160;DHT22;9205;52.032;4.314;2023-04-25T10:52:18;10.40;99.90
18160;DHT22;9205;52.032;4.314;2023-04-25T10:54:52;10.90;99.90
18160;DHT22;9205;52.032;4.314;2023-04-25T10:57:28;10.80;99.90
18160;DHT22;9205;52.032;4.314;2023-04-25T11:00:06;11.70;1.00
18160;DHT22;9205;52.032;4.314;2023-04-25T11:02:44;12.20;1.00
18160;DHT22;9205;52.032;4.314;2023-04-25T11:05:23;12.60;1.00
18160;DHT22;9205;52.032;4.314;2023-04-25T11:07:56;12.60;1.00
18160;DHT22;9205;52.032;4.314;2023-04-25T11:10:26;12.80;99.90
18160;DHT22;9205;52.032;4.314;2023-04-25T11:12:54;12.40;99.90
18160;DHT22;9205;52.032;4.314;2023-04-25T11:15:21;12.20;99.90
18160;DHT22;9205;52.032;4.314;2023-04-25T11:17:50;12.00;99.90
18160;DHT22;9205;52.032;4.314;2023-04-25T11:20:18;12.10;99.90
18160;DHT22;9205;52.032;4.314;2023-04-25T11:22:47;12.10;99.90
18160;DHT22;9205;52.032;4.314;2023-04-25T11:25:16;11.80;99.90
18160;DHT22;9205;52.032;4.314;2023-04-25T11:27:50;11.90;99.90
18160;DHT22;9205;52.032;4.314;2023-04-25T11:30:18;12.00;99.90
18160;DHT22;9205;52.032;4.314;2023-04-25T11:32:46;12.30;99.90
18160;DHT22;9205;52.032;4.314;2023-04-25T11:35:14;12.20;99.90
18160;DHT22;9205;52.032;4.314;2023-04-25T11:37:43;12.10;99.90
18160;DHT22;9205;52.032;4.314;2023-04-25T11:40:11;11.90;99.90
18160;DHT22;9205;52.032;4.314;2023-04-25T11:42:44;11.90;99.90
18160;DHT22;9205;52.032;4.314;2023-04-25T11:45:12;11.90;99.90
18160;DHT22;9205;52.032;4.314;2023-04-25T11:47:40;11.70;99.90
18160;DHT22;9205;52.032;4.314;2023-04-25T11:50:08;11.80;99.90
18160;DHT22;9205;52.032;4.314;2023-04-25T11:52:38;12.20;99.90
18160;DHT22;9205;52.032;4.314;2023-04-25T11:55:08;12.40;99.90
18160;DHT22;9205;52.032;4.314;2023-04-25T11:57:39;12.50;99.90
18160;DHT22;9205;52.032;4.314;2023-04-25T12:00:12;11.90;99.90
18160;DHT22;9205;52.032;4.314;2023-04-25T12:02:42;11.40;99.90
18160;DHT22;9205;52.032;4.314;2023-04-25T12:05:10;11.10;99.90
18160;DHT22;9205;52.032;4.314;2023-04-25T12:07:38;11.30;99.90
18160;DHT22;9205;52.032;4.314;2023-04-25T12:10:08;11.80;99.90
18160;DHT22;9205;52.032;4.314;2023-04-25T12:12:41;12.30;99.90
18160;DHT22;9205;52.032;4.314;2023-04-25T12:15:14;12.00;99.90
18160;DHT22;9205;52.032;4.314;2023-04-25T12:17:45;12.20;99.90
18160;DHT22;9205;52.032;4.314;2023-04-25T12:20:14;12.00;99.90
18160;DHT22;9205;52.032;4.314;2023-04-25T12:22:42;12.20;99.90
18160;DHT22;9205;52.032;4.314;2023-04-25T12:25:12;11.90;99.90
18160;DHT22;9205;52.032;4.314;2023-04-25T12:27:42;11.90;99.90
18160;DHT22;9205;52.032;4.314;2023-04-25T12:30:09;12.30;99.90
18160;DHT22;9205;52.032;4.314;2023-04-25T12:32:37;12.00;99.90
18160;DHT22;9205;52.032;4.314;2023-04-25T12:35:05;11.70;99.90
18160;DHT22;9205;52.032;4.314;2023-04-25T12:37:33;12.00;99.90
18160;DHT22;9205;52.032;4.314;2023-04-25T12:40:00;12.20;99.90
18160;DHT22;9205;52.032;4.314;2023-04-25T12:42:29;12.30;99.90
18160;DHT22;9205;52.032;4.314;2023-04-25T12:44:58;12.50;99.90
18160;DHT22;9205;52.032;4.314;2023-04-25T12:47:25;12.80;99.90
18160;DHT22;9205;52.032;4.314;2023-04-25T12:49:53;12.50;99.90
18160;DHT22;9205;52.032;4.314;2023-04-25T12:52:20;12.50;99.90
18160;DHT22;9205;52.032;4.314;2023-04-25T12:54:47;12.30;99.90
18160;DHT22;9205;52.032;4.314;2023-04-25T12:57:14;12.10;99.90
18160;DHT22;9205;52.032;4.314;2023-04-25T12:59:41;12.10;99.90
18160;DHT22;9205;52.032;4.314;2023-04-25T13:02:10;12.00;99.90
18160;DHT22;9205;52.032;4.314;2023-04-25T13:04:38;11.80;99.90
18160;DHT22;9205;52.032;4.314;2023-04-25T13:07:05;12.20;99.90
18160;DHT22;9205;52.032;4.314;2023-04-25T13:09:32;12.10;99.90
18160;DHT22;9205;52.032;4.314;2023-04-25T13:11:59;11.50;99.90
18160;DHT22;9205;52.032;4.314;2023-04-25T13:14:27;11.50;99.90
18160;DHT22;9205;52.032;4.314;2023-04-25T13:16:54;11.90;99.90
18160;DHT22;9205;52.032;4.314;2023-04-25T13:19:23;11.80;99.90
18160;DHT22;9205;52.032;4.314;2023-04-25T13:21:51;11.60;99.90
18160;DHT22;9205;52.032;4.314;2023-04-25T13:24:18;12.00;99.90
18160;DHT22;9205;52.032;4.314;2023-04-25T13:26:45;12.60;99.90
18160;DHT22;9205;52.032;4.314;2023-04-25T13:29:12;12.90;99.90
18160;DHT22;9205;52.032;4.314;2023-04-25T13:31:39;12.70;99.90
18160;DHT22;9205;52.032;4.314;2023-04-25T13:34:07;12.40;99.90
18160;DHT22;9205;52.032;4.314;2023-04-25T13:36:35;12.30;99.90
18160;DHT22;9205;52.032;4.314;2023-04-25T13:39:03;12.20;99.90
18160;DHT22;9205;52.032;4.314;2023-04-25T13:41:31;11.90;99.90
18160;DHT22;9205;52.032;4.314;2023-04-25T13:43:59;12.00;99.90
18160;DHT22;9205;52.032;4.314;2023-04-25T13:46:26;12.10;99.90
18160;DHT22;9205;52.032;4.314;2023-04-25T13:48:54;12.10;99.90
18160;DHT22;9205;52.032;4.314;2023-04-25T13:51:21;12.10;92.20
18160;DHT22;9205;52.032;4.314;2023-04-25T13:53:49;12.20;86.80
18160;DHT22;9205;52.032;4.314;2023-04-25T13:56:17;12.40;97.60
18160;DHT22;9205;52.032;4.314;2023-04-25T13:58:45;12.30;27.20
18160;DHT22;9205;52.032;4.314;2023-04-25T14:01:12;12.40;13.80
18160;DHT22;9205;52.032;4.314;2023-04-25T14:03:39;12.40;1.00
18160;DHT22;9205;52.032;4.314;2023-04-25T14:06:07;12.60;19.90
18160;DHT22;9205;52.032;4.314;2023-04-25T14:08:35;12.60;5.90
18160;DHT22;9205;52.032;4.314;2023-04-25T14:11:04;12.80;61.80
18160;DHT22;9205;52.032;4.314;2023-04-25T14:13:31;12.50;1.00
18160;DHT22;9205;52.032;4.314;2023-04-25T14:15:58;12.40;1.00
18160;DHT22;9205;52.032;4.314;2023-04-25T14:18:26;12.20;1.00
18160;DHT22;9205;52.032;4.314;2023-04-25T14:20:53;12.10;1.00
18160;DHT22;9205;52.032;4.314;2023-04-25T14:23:20;11.90;1.40
18160;DHT22;9205;52.032;4.314;2023-04-25T14:25:47;11.90;5.10
18160;DHT22;9205;52.032;4.314;2023-04-25T14:28:16;12.10;43.50
18160;DHT22;9205;52.032;4.314;2023-04-25T14:30:43;12.00;17.50
18160;DHT22;9205;52.032;4.314;2023-04-25T14:33:11;12.30;99.90
18160;DHT22;9205;52.032;4.314;2023-04-25T14:35:39;12.30;47.00
18160;DHT22;9205;52.032;4.314;2023-04-25T14:38:07;12.50;96.50
18160;DHT22;9205;52.032;4.314;2023-04-25T14:40:34;12.20;53.40
18160;DHT22;9205;52.032;4.314;2023-04-25T14:43:02;11.90;57.40
18160;DHT22;9205;52.032;4.314;2023-04-25T14:45:31;11.80;99.90
18160;DHT22;9205;52.032;4.314;2023-04-25T14:47:58;11.50;99.90
18160;DHT22;9205;52.032;4.314;2023-04-25T14:50:26;11.40;99.90
18160;DHT22;9205;52.032;4.314;2023-04-25T14:52:53;11.10;99.10
18160;DHT22;9205;52.032;4.314;2023-04-25T14:55:24;11.20;99.90
18160;DHT22;9205;52.032;4.314;2023-04-25T14:57:53;11.30;99.90
18160;DHT22;9205;52.032;4.314;2023-04-25T15:00:21;11.10;99.90
18160;DHT22;9205;52.032;4.314;2023-04-25T15:02:50;11.00;99.90
18160;DHT22;9205;52.032;4.314;2023-04-25T15:05:17;10.80;48.30
18160;DHT22;9205;52.032;4.314;2023-04-25T15:07:45;10.80;51.20
18160;DHT22;9205;52.032;4.314;2023-04-25T15:10:13;11.00;70.40
18160;DHT22;9205;52.032;4.314;2023-04-25T15:12:41;11.10;70.50
18160;DHT22;9205;52.032;4.314;2023-04-25T15:15:10;11.40;99.90
18160;DHT22;9205;52.032;4.314;2023-04-25T15:17:38;11.70;99.90
18160;DHT22;9205;52.032;4.314;2023-04-25T15:20:09;11.50;99.90
18160;DHT22;9205;52.032;4.314;2023-04-25T15:22:38;11.10;87.80
18160;DHT22;9205;52.032;4.314;2023-04-25T15:25:06;11.10;51.20
18160;DHT22;9205;52.032;4.314;2023-04-25T15:27:38;11.10;59.10
18160;DHT22;9205;52.032;4.314;2023-04-25T15:30:10;11.10;1.00
18160;DHT22;9205;52.032;4.314;2023-04-25T15:32:39;11.10;1.00
18160;DHT22;9205;52.032;4.314;2023-04-25T15:35:09;11.20;5.50
18160;DHT22;9205;52.032;4.314;2023-04-25T15:37:37;11.40;9.80
18160;DHT22;9205;52.032;4.314;2023-04-25T15:40:08;11.60;57.40
18160;DHT22;9205;52.032;4.314;2023-04-25T15:42:39;11.50;25.10
18160;DHT22;9205;52.032;4.314;2023-04-25T15:45:10;11.50;1.00
18160;DHT22;9205;52.032;4.314;2023-04-25T15:47:38;11.00;1.00
18160;DHT22;9205;52.032;4.314;2023-04-25T15:50:09;11.20;8.20
18160;DHT22;9205;52.032;4.314;2023-04-25T15:52:37;11.00;1.00
18160;DHT22;9205;52.032;4.314;2023-04-25T15:55:06;11.00;1.00
18160;DHT22;9205;52.032;4.314;2023-04-25T15:57:34;11.00;1.00
18160;DHT22;9205;52.032;4.314;2023-04-25T16:00:04;11.20;65.90
18160;DHT22;9205;52.032;4.314;2023-04-25T16:02:37;10.70;1.00
18160;DHT22;9205;52.032;4.314;2023-04-25T16:05:05;10.50;1.00
18160;DHT22;9205;52.032;4.314;2023-04-25T16:07:34;10.40;1.00
18160;DHT22;9205;52.032;4.314;2023-04-25T16:10:02;10.30;1.00
18160;DHT22;9205;52.032;4.314;2023-04-25T16:12:30;10.20;1.00
18160;DHT22;9205;52.032;4.314;2023-04-25T16:14:58;10.00;1.00
18160;DHT22;9205;52.032;4.314;2023-04-25T16:17:25;9.60;10.70
18160;DHT22;9205;52.032;4.314;2023-04-25T16:19:54;10.00;99.90
18160;DHT22;9205;52.032;4.314;2023-04-25T16:22:24;10.30;99.90
18160;DHT22;9205;52.032;4.314;2023-04-25T16:24:52;10.40;99.90